createdAt,value
2019-01-28T00:01:36.469Z,3.30
2019-01-28T00:04:04.823Z,3.30
2019-01-28T00:06:33.102Z,3.23
2019-01-28T00:09:01.354Z,3.20
2019-01-28T00:11:29.646Z,3.21
2019-01-28T00:13:57.898Z,3.25
2019-01-28T00:16:26.175Z,3.27
2019-01-28T00:18:54.471Z,3.30
2019-01-28T00:21:22.696Z,3.37
2019-01-28T00:23:50.961Z,3.39
2019-01-28T00:26:19.209Z,3.40
2019-01-28T00:28:47.480Z,3.46
2019-01-28T00:31:15.724Z,3.42
2019-01-28T00:33:44.556Z,3.43
2019-01-28T00:36:12.796Z,3.47
2019-01-28T00:38:41.045Z,3.46
2019-01-28T00:41:09.324Z,3.44
2019-01-28T00:43:37.588Z,3.43
2019-01-28T00:46:05.848Z,3.46
2019-01-28T00:48:34.130Z,3.42
2019-01-28T00:51:02.400Z,3.41
2019-01-28T00:53:30.669Z,3.41
2019-01-28T00:55:58.951Z,3.40
2019-01-28T00:58:27.199Z,3.39
2019-01-28T01:00:55.458Z,3.38
2019-01-28T01:03:23.724Z,3.33
2019-01-28T01:05:51.959Z,3.36
2019-01-28T01:08:20.216Z,3.26
2019-01-28T01:10:48.485Z,3.26
2019-01-28T01:13:16.732Z,3.29
2019-01-28T01:15:45.014Z,3.29
2019-01-28T01:18:13.281Z,3.25
2019-01-28T01:20:41.595Z,3.18
2019-01-28T01:23:09.872Z,3.19
2019-01-28T01:25:38.142Z,3.22
2019-01-28T01:28:06.405Z,3.23
2019-01-28T01:30:34.724Z,3.29
2019-01-28T01:33:03.007Z,3.21
2019-01-28T01:35:31.272Z,3.22
2019-01-28T01:37:59.560Z,3.29
2019-01-28T01:40:27.845Z,3.23
2019-01-28T01:42:56.136Z,3.17
2019-01-28T01:45:24.406Z,3.20
2019-01-28T01:47:52.669Z,3.25
2019-01-28T01:50:21.219Z,3.27
2019-01-28T01:52:49.470Z,3.23
2019-01-28T01:55:17.738Z,3.21
2019-01-28T01:57:46.012Z,3.27
2019-01-28T02:00:16.320Z,3.19
2019-01-28T02:02:44.585Z,3.28
2019-01-28T02:05:12.921Z,3.28
2019-01-28T02:07:41.199Z,3.18
2019-01-28T02:10:14.036Z,3.22
2019-01-28T02:12:42.385Z,3.19
2019-01-28T02:15:15.841Z,2.97
2019-01-28T02:17:44.108Z,3.02
2019-01-28T02:20:12.534Z,3.12
2019-01-28T02:22:40.794Z,3.11
2019-01-28T02:25:11.882Z,3.02
2019-01-28T02:27:40.149Z,2.95
2019-01-28T02:30:14.255Z,2.95
2019-01-28T02:32:42.503Z,3.03
2019-01-28T02:35:10.909Z,2.97
2019-01-28T02:37:39.195Z,2.98
2019-01-28T02:40:15.378Z,3.10
2019-01-28T02:42:43.653Z,3.10
2019-01-28T02:45:13.749Z,3.14
2019-01-28T02:47:42.032Z,3.17
2019-01-28T02:50:17.274Z,3.17
2019-01-28T02:52:45.981Z,3.19
2019-01-28T02:55:15.283Z,3.18
2019-01-28T02:57:43.538Z,3.18
2019-01-28T03:00:17.889Z,3.04
2019-01-28T03:02:46.394Z,3.09
2019-01-28T03:05:15.390Z,3.03
2019-01-28T03:07:43.660Z,3.05
2019-01-28T03:10:19.923Z,2.91
2019-01-28T03:12:48.271Z,2.93
2019-01-28T03:15:17.368Z,2.98
2019-01-28T03:17:45.698Z,2.97
2019-01-28T03:20:15.833Z,2.92
2019-01-28T03:22:44.069Z,2.94
2019-01-28T03:25:14.564Z,2.98
2019-01-28T03:27:42.827Z,2.90
2019-01-28T03:30:13.816Z,2.85
2019-01-28T03:32:42.111Z,2.88
2019-01-28T03:35:10.666Z,2.88
2019-01-28T03:37:38.934Z,2.91
2019-01-28T03:40:10.362Z,2.87
2019-01-28T03:42:39.710Z,2.89
2019-01-28T03:45:11.226Z,2.89
2019-01-28T03:47:41.661Z,2.87
2019-01-28T03:50:12.902Z,2.89
2019-01-28T03:52:41.262Z,2.77
2019-01-28T03:55:11.399Z,2.82
2019-01-28T03:57:39.757Z,2.90
2019-01-28T04:00:24.907Z,2.82
2019-01-28T04:02:53.198Z,2.80
2019-01-28T04:05:22.238Z,2.76
2019-01-28T04:07:50.559Z,2.73
2019-01-28T04:10:23.635Z,2.74
2019-01-28T04:12:52.599Z,2.73
2019-01-28T04:15:23.431Z,2.70
2019-01-28T04:17:51.756Z,2.75
2019-01-28T04:20:21.169Z,2.82
2019-01-28T04:22:49.769Z,2.87
2019-01-28T04:25:18.123Z,2.81
2019-01-28T04:27:46.393Z,2.80
2019-01-28T04:30:17.830Z,2.77
2019-01-28T04:32:46.129Z,2.73
2019-01-28T04:35:14.385Z,2.73
2019-01-28T04:37:42.671Z,2.80
2019-01-28T04:40:12.980Z,2.82
2019-01-28T04:42:41.338Z,2.82
2019-01-28T04:45:12.147Z,2.81
2019-01-28T04:47:40.433Z,2.78
2019-01-28T04:50:16.696Z,2.83
2019-01-28T04:52:45.028Z,2.88
2019-01-28T04:55:14.427Z,2.76
2019-01-28T04:57:42.758Z,2.78
2019-01-28T05:00:13.984Z,2.77
2019-01-28T05:02:42.245Z,2.76
2019-01-28T05:05:10.596Z,2.75
2019-01-28T05:07:38.858Z,2.76
2019-01-28T05:10:10.058Z,2.77
2019-01-28T05:12:38.330Z,2.86
2019-01-28T05:15:09.053Z,2.88
2019-01-28T05:17:37.348Z,2.88
2019-01-28T05:20:14.265Z,2.83
2019-01-28T05:22:42.568Z,2.85
2019-01-28T05:25:12.979Z,2.86
2019-01-28T05:27:41.250Z,2.81
2019-01-28T05:30:23.782Z,2.84
2019-01-28T05:32:52.681Z,2.82
2019-01-28T05:35:22.399Z,2.87
2019-01-28T05:37:50.836Z,2.89
2019-01-28T05:40:25.789Z,2.77
2019-01-28T05:42:54.049Z,2.73
2019-01-28T05:45:24.257Z,2.66
2019-01-28T05:47:52.560Z,2.66
2019-01-28T05:50:20.877Z,2.70
2019-01-28T05:52:49.208Z,2.70
2019-01-28T05:55:18.799Z,2.71
2019-01-28T05:57:47.325Z,2.69
2019-01-28T06:00:25.322Z,2.68
2019-01-28T06:02:53.697Z,2.63
2019-01-28T06:05:22.047Z,2.60
2019-01-28T06:07:52.007Z,2.58
2019-01-28T06:10:20.801Z,2.59
2019-01-28T06:12:49.101Z,2.60
2019-01-28T06:15:18.723Z,2.54
2019-01-28T06:17:47.198Z,2.62
2019-01-28T06:20:25.887Z,2.60
2019-01-28T06:22:54.158Z,2.70
2019-01-28T06:25:23.460Z,2.77
2019-01-28T06:27:51.733Z,2.76
2019-01-28T06:30:28.399Z,2.72
2019-01-28T06:32:56.718Z,2.69
2019-01-28T06:35:25.075Z,2.70
2019-01-28T06:37:53.415Z,2.57
2019-01-28T06:40:32.717Z,2.59
2019-01-28T06:43:01.036Z,2.50
2019-01-28T06:45:29.457Z,2.56
2019-01-28T06:47:57.801Z,2.50
2019-01-28T06:50:26.167Z,2.54
2019-01-28T06:53:03.326Z,2.49
2019-01-28T06:55:31.628Z,2.58
2019-01-28T06:57:59.916Z,2.56
2019-01-28T07:00:30.159Z,2.46
2019-01-28T07:02:58.679Z,2.47
2019-01-28T07:05:27.130Z,2.48
2019-01-28T07:07:55.399Z,2.54
2019-01-28T07:10:23.714Z,2.48
2019-01-28T07:12:51.986Z,2.56
2019-01-28T07:15:22.101Z,2.65
2019-01-28T07:17:54.917Z,2.70
2019-01-28T07:20:24.228Z,2.70
2019-01-28T07:22:52.718Z,2.68
2019-01-28T07:25:21.845Z,2.57
2019-01-28T07:27:50.155Z,2.59
2019-01-28T07:30:27.052Z,2.43
2019-01-28T07:32:55.523Z,2.55
2019-01-28T07:35:23.833Z,2.57
2019-01-28T07:37:52.192Z,2.47
2019-01-28T07:40:22.062Z,2.43
2019-01-28T07:42:50.375Z,2.61
2019-01-28T07:45:24.394Z,2.54
2019-01-28T07:47:52.732Z,2.35
2019-01-28T07:50:22.735Z,2.43
2019-01-28T07:52:51.026Z,2.51
2019-01-28T07:55:19.286Z,2.41
2019-01-28T07:57:47.581Z,2.42
2019-01-28T08:00:19.559Z,2.47
2019-01-28T08:02:47.929Z,2.46
2019-01-28T08:05:17.552Z,2.37
2019-01-28T08:07:45.823Z,2.48
2019-01-28T08:10:16.217Z,2.52
2019-01-28T08:12:44.484Z,2.54
2019-01-28T08:15:15.195Z,2.38
2019-01-28T08:17:43.619Z,2.45
2019-01-28T08:20:16.857Z,2.39
2019-01-28T08:22:45.192Z,2.48
2019-01-28T08:25:15.514Z,2.55
2019-01-28T08:27:43.793Z,2.53
2019-01-28T08:30:26.347Z,2.50
2019-01-28T08:32:55.164Z,2.53
2019-01-28T08:35:24.068Z,2.42
2019-01-28T08:37:52.336Z,2.46
2019-01-28T08:40:21.651Z,2.57
2019-01-28T08:42:49.943Z,2.58
2019-01-28T08:45:18.204Z,2.60
2019-01-28T08:47:46.470Z,2.52
2019-01-28T08:50:17.914Z,2.51
2019-01-28T08:52:46.203Z,2.53
2019-01-28T08:55:17.171Z,2.53
2019-01-28T08:57:45.439Z,2.58
2019-01-28T09:00:19.392Z,2.76
2019-01-28T09:02:47.673Z,2.80
2019-01-28T09:05:17.115Z,2.90
2019-01-28T09:07:45.389Z,2.84
2019-01-28T09:10:16.695Z,2.63
2019-01-28T09:12:45.056Z,2.68
2019-01-28T09:15:20.953Z,2.70
2019-01-28T09:17:49.266Z,2.82
2019-01-28T09:20:20.175Z,2.90
2019-01-28T09:22:48.448Z,3.00
2019-01-28T09:25:17.136Z,3.00
2019-01-28T09:27:45.414Z,2.98
2019-01-28T09:30:26.052Z,3.13
2019-01-28T09:32:54.345Z,3.04
2019-01-28T09:35:22.619Z,2.97
2019-01-28T09:37:50.974Z,3.02
2019-01-28T09:40:21.585Z,3.15
2019-01-28T09:42:49.904Z,3.19
2019-01-28T09:45:20.508Z,3.24
2019-01-28T09:47:48.854Z,3.36
2019-01-28T09:50:17.886Z,3.43
2019-01-28T09:52:46.477Z,3.53
2019-01-28T09:55:15.100Z,3.49
2019-01-28T09:57:43.468Z,3.50
2019-01-28T10:00:26.779Z,3.47
2019-01-28T10:02:55.200Z,3.35
2019-01-28T10:05:23.532Z,3.42
2019-01-28T10:07:51.808Z,3.56
2019-01-28T10:10:20.710Z,3.54
2019-01-28T10:12:49.053Z,3.63
2019-01-28T10:15:28.724Z,3.65
2019-01-28T10:17:55.644Z,3.63
2019-01-28T10:20:35.410Z,3.74
2019-01-28T10:23:05.168Z,3.67
2019-01-28T10:25:33.425Z,3.63
2019-01-28T10:28:01.682Z,3.64
2019-01-28T10:30:32.198Z,3.66
2019-01-28T10:33:00.582Z,3.81
2019-01-28T10:35:30.128Z,3.74
2019-01-28T10:37:58.560Z,3.61
2019-01-28T10:40:32.106Z,3.68
2019-01-28T10:43:00.440Z,3.46
2019-01-28T10:45:28.707Z,3.47
2019-01-28T10:48:00.608Z,3.56
2019-01-28T10:50:27.983Z,3.50
2019-01-28T10:52:56.405Z,3.49
2019-01-28T10:55:25.926Z,3.47
2019-01-28T10:57:54.456Z,3.55
2019-01-28T11:00:34.454Z,3.60
2019-01-28T11:03:02.898Z,3.50
2019-01-28T11:05:31.154Z,3.54
2019-01-28T11:07:59.431Z,3.57
2019-01-28T11:10:28.752Z,3.58
2019-01-28T11:12:57.331Z,3.51
2019-01-28T11:15:30.042Z,3.47
2019-01-28T11:18:00.891Z,3.42
2019-01-28T11:20:29.365Z,3.23
2019-01-28T11:22:57.646Z,3.27
2019-01-28T11:25:31.103Z,3.28
2019-01-28T11:27:59.513Z,3.25
2019-01-28T11:30:46.627Z,3.28
2019-01-28T11:33:15.299Z,3.28
2019-01-28T11:35:43.792Z,3.16
2019-01-28T11:38:12.700Z,3.30
2019-01-28T11:40:41.188Z,3.36
2019-01-28T11:43:09.536Z,3.39
2019-01-28T11:45:41.014Z,3.44
2019-01-28T11:48:09.258Z,3.39
2019-01-28T11:50:37.508Z,3.43
2019-01-28T11:53:05.971Z,3.38
2019-01-28T11:55:34.305Z,3.41
2019-01-28T11:58:02.615Z,3.39
2019-01-28T12:00:41.101Z,3.40
2019-01-28T12:03:09.373Z,3.44
2019-01-28T12:05:37.633Z,3.18
2019-01-28T12:08:06.501Z,3.13
2019-01-28T12:10:34.769Z,3.25
2019-01-28T12:13:03.254Z,3.37
2019-01-28T12:15:31.548Z,3.20
2019-01-28T12:17:59.832Z,3.31
2019-01-28T12:20:28.115Z,3.34
2019-01-28T12:22:56.372Z,3.42
2019-01-28T12:25:24.680Z,3.52
2019-01-28T12:27:52.954Z,3.66
2019-01-28T12:30:29.241Z,3.64
2019-01-28T12:32:57.493Z,3.55
2019-01-28T12:35:25.794Z,3.59
2019-01-28T12:37:54.067Z,3.66
2019-01-28T12:40:23.371Z,3.68
2019-01-28T12:42:52.663Z,3.69
2019-01-28T12:45:28.574Z,3.69
2019-01-28T12:47:58.508Z,3.64
2019-01-28T12:50:27.086Z,3.64
2019-01-28T12:52:55.340Z,3.69
2019-01-28T12:55:25.939Z,3.76
2019-01-28T12:57:54.278Z,3.74
2019-01-28T13:00:26.239Z,3.75
2019-01-28T13:02:54.508Z,3.81
2019-01-28T13:05:24.138Z,3.81
2019-01-28T13:07:52.404Z,3.79
2019-01-28T13:10:25.086Z,3.73
2019-01-28T13:12:53.304Z,3.75
2019-01-28T13:15:30.578Z,3.78
2019-01-28T13:17:58.837Z,3.80
2019-01-28T13:20:27.375Z,3.86
2019-01-28T13:22:55.640Z,3.85
2019-01-28T13:25:28.970Z,3.87
2019-01-28T13:27:57.322Z,3.87
2019-01-28T13:30:37.130Z,3.85
2019-01-28T13:33:07.797Z,3.78
2019-01-28T13:35:36.055Z,3.75
2019-01-28T13:38:04.324Z,3.81
2019-01-28T13:40:32.600Z,3.83
2019-01-28T13:43:00.853Z,3.82
2019-01-28T13:45:29.144Z,3.83
2019-01-28T13:47:57.694Z,3.86
2019-01-28T13:50:26.237Z,3.90
2019-01-28T13:52:54.689Z,3.90
2019-01-28T13:55:23.522Z,3.86
2019-01-28T13:57:51.786Z,3.81
2019-01-28T14:00:23.253Z,3.78
2019-01-28T14:02:51.536Z,3.79
2019-01-28T14:05:19.792Z,3.80
2019-01-28T14:07:48.120Z,3.74
2019-01-28T14:10:18.313Z,3.64
2019-01-28T14:12:46.578Z,3.64
2019-01-28T14:15:23.702Z,3.68
2019-01-28T14:17:52.046Z,3.75
2019-01-28T14:20:22.933Z,3.75
2019-01-28T14:22:51.229Z,3.71
2019-01-28T14:25:19.510Z,3.61
2019-01-28T14:27:50.021Z,3.63
2019-01-28T14:30:26.766Z,3.62
2019-01-28T14:32:55.036Z,3.71
2019-01-28T14:35:23.300Z,3.76
2019-01-28T14:37:51.573Z,3.78
2019-01-28T14:40:22.603Z,3.79
2019-01-28T14:42:50.872Z,3.63
2019-01-28T14:45:19.153Z,3.66
2019-01-28T14:47:47.424Z,3.72
2019-01-28T14:50:21.443Z,3.74
2019-01-28T14:52:49.700Z,3.77
2019-01-28T14:55:18.043Z,3.77
2019-01-28T14:57:46.301Z,3.77
2019-01-28T15:00:20.158Z,3.79
2019-01-28T15:02:48.440Z,3.81
2019-01-28T15:05:16.690Z,3.70
2019-01-28T15:07:44.995Z,3.72
2019-01-28T15:10:16.244Z,3.71
2019-01-28T15:12:47.739Z,3.71
2019-01-28T15:15:37.038Z,3.75
2019-01-28T15:18:06.459Z,3.46
2019-01-28T15:20:34.735Z,3.50
2019-01-28T15:23:03.002Z,3.40
2019-01-28T15:25:31.276Z,3.49
2019-01-28T15:27:59.550Z,3.48
2019-01-28T15:30:29.433Z,3.52
2019-01-28T15:32:58.215Z,3.52
2019-01-28T15:35:26.570Z,3.56
2019-01-28T15:37:54.852Z,3.60
2019-01-28T15:40:25.819Z,3.68
2019-01-28T15:42:54.087Z,3.54
2019-01-28T15:45:31.099Z,3.35
2019-01-28T15:47:59.401Z,3.47
2019-01-28T15:50:27.636Z,3.53
2019-01-28T15:52:55.910Z,3.49
2019-01-28T15:55:29.719Z,3.50
2019-01-28T15:57:57.983Z,3.55
2019-01-28T16:00:28.381Z,3.33
2019-01-28T16:02:56.711Z,3.48
2019-01-28T16:05:24.984Z,3.43
2019-01-28T16:07:53.517Z,3.28
2019-01-28T16:10:21.793Z,3.32
2019-01-28T16:12:50.046Z,3.40
2019-01-28T16:15:21.474Z,3.17
2019-01-28T16:17:49.740Z,3.22
2019-01-28T16:20:18.594Z,3.22
2019-01-28T16:22:47.191Z,3.21
2019-01-28T16:25:15.519Z,3.19
2019-01-28T16:27:44.044Z,3.19
2019-01-28T16:30:26.416Z,3.17
2019-01-28T16:32:51.666Z,3.18
2019-01-28T16:35:21.167Z,3.10
2019-01-28T16:37:50.986Z,3.11
2019-01-28T16:40:21.600Z,3.24
2019-01-28T16:42:50.649Z,3.04
2019-01-28T16:45:19.394Z,2.98
2019-01-28T16:47:47.728Z,2.77
2019-01-28T16:50:26.718Z,2.85
2019-01-28T16:52:51.670Z,2.73
2019-01-28T16:55:19.939Z,2.66
2019-01-28T16:57:48.270Z,2.69
2019-01-28T17:00:19.699Z,2.79
2019-01-28T17:02:48.019Z,2.79
2019-01-28T17:05:16.351Z,2.82
2019-01-28T17:07:44.716Z,2.88
2019-01-28T17:10:14.558Z,2.94
2019-01-28T17:12:42.813Z,2.96
2019-01-28T17:15:13.909Z,2.84
2019-01-28T17:17:42.177Z,2.82
2019-01-28T17:20:19.042Z,2.90
2019-01-28T17:22:47.308Z,2.92
2019-01-28T17:25:18.760Z,2.96
2019-01-28T17:27:47.213Z,2.92
2019-01-28T17:30:32.639Z,2.98
2019-01-28T17:33:00.976Z,3.07
2019-01-28T17:35:29.250Z,2.93
2019-01-28T17:37:57.769Z,3.02
2019-01-28T17:40:28.379Z,2.80
2019-01-28T17:42:56.656Z,2.73
2019-01-28T17:45:25.867Z,2.50
2019-01-28T17:47:54.143Z,2.39
2019-01-28T17:50:24.568Z,2.25
2019-01-28T17:52:52.408Z,2.13
2019-01-28T17:55:20.665Z,2.05
2019-01-28T17:57:49.390Z,1.90
2019-01-28T18:00:29.622Z,1.76
2019-01-28T18:02:58.297Z,1.78
2019-01-28T18:05:26.626Z,1.78
2019-01-28T18:07:54.907Z,1.69
2019-01-28T18:10:23.192Z,1.68
2019-01-28T18:12:51.468Z,1.62
2019-01-28T18:15:21.683Z,1.54
2019-01-28T18:17:50.072Z,1.39
2019-01-28T18:20:18.604Z,1.52
2019-01-28T18:22:47.614Z,1.38
2019-01-28T18:25:24.982Z,1.26
2019-01-28T18:27:53.350Z,1.31
2019-01-28T18:30:28.833Z,1.15
2019-01-28T18:32:57.182Z,1.15
2019-01-28T18:35:25.700Z,1.09
2019-01-28T18:37:53.985Z,1.16
2019-01-28T18:40:22.263Z,1.08
2019-01-28T18:42:50.621Z,0.92
2019-01-28T18:45:19.939Z,0.96
2019-01-28T18:47:48.545Z,0.84
2019-01-28T18:50:18.567Z,0.80
2019-01-28T18:52:47.192Z,0.77
2019-01-28T18:55:17.814Z,0.86
2019-01-28T18:57:46.076Z,0.84
2019-01-28T19:00:19.568Z,0.77
2019-01-28T19:02:47.821Z,0.71
2019-01-28T19:05:18.122Z,0.63
2019-01-28T19:07:48.695Z,0.62
2019-01-28T19:10:22.562Z,0.66
2019-01-28T19:12:52.459Z,0.69
2019-01-28T19:15:25.011Z,0.69
2019-01-28T19:18:00.872Z,0.65
2019-01-28T19:20:30.815Z,0.63
2019-01-28T19:22:59.115Z,0.65
2019-01-28T19:25:27.363Z,0.70
2019-01-28T19:27:55.640Z,0.59
2019-01-28T19:30:23.907Z,0.49
2019-01-28T19:32:52.165Z,0.50
2019-01-28T19:35:20.677Z,0.41
2019-01-28T19:37:48.928Z,0.34
2019-01-28T19:40:18.860Z,0.34
2019-01-28T19:42:47.187Z,0.28
2019-01-28T19:45:17.797Z,0.38
2019-01-28T19:47:46.184Z,0.46
2019-01-28T19:50:17.810Z,0.44
2019-01-28T19:52:46.802Z,0.36
2019-01-28T19:55:16.528Z,0.25
2019-01-28T19:57:44.594Z,0.35
2019-01-28T20:00:26.090Z,0.41
2019-01-28T20:02:54.805Z,0.48
2019-01-28T20:05:24.287Z,0.39
2019-01-28T20:07:52.803Z,0.31
2019-01-28T20:10:21.695Z,0.27
2019-01-28T20:12:49.974Z,0.32
2019-01-28T20:15:20.365Z,0.30
2019-01-28T20:17:52.404Z,0.33
2019-01-28T20:20:21.975Z,0.33
2019-01-28T20:22:50.258Z,0.25
2019-01-28T20:25:19.285Z,0.25
2019-01-28T20:27:47.571Z,0.17
2019-01-28T20:30:23.995Z,0.22
2019-01-28T20:33:00.327Z,0.07
2019-01-28T20:35:30.108Z,0.19
2019-01-28T20:38:01.726Z,0.20
2019-01-28T20:40:29.998Z,0.23
2019-01-28T20:42:58.302Z,0.14
2019-01-28T20:45:27.357Z,0.04
2019-01-28T20:47:58.185Z,0.02
2019-01-28T20:50:33.880Z,-0.05
2019-01-28T20:53:02.188Z,0.04
2019-01-28T20:55:30.497Z,0.03
2019-01-28T20:57:58.821Z,0.04
2019-01-28T21:00:28.962Z,0.00
2019-01-28T21:02:57.314Z,0.08
2019-01-28T21:05:26.415Z,0.12
2019-01-28T21:07:55.979Z,0.08
2019-01-28T21:10:24.274Z,0.11
2019-01-28T21:12:53.554Z,0.03
2019-01-28T21:15:22.517Z,0.05
2019-01-28T21:17:50.862Z,0.00
2019-01-28T21:20:20.666Z,-0.05
2019-01-28T21:22:49.587Z,-0.15
2019-01-28T21:25:22.501Z,-0.01
2019-01-28T21:27:50.895Z,-0.08
2019-01-28T21:30:22.050Z,-0.11
2019-01-28T21:32:50.488Z,-0.07
2019-01-28T21:35:20.420Z,-0.13
2019-01-28T21:37:50.319Z,-0.08
2019-01-28T21:40:18.563Z,-0.04
2019-01-28T21:42:46.854Z,0.05
2019-01-28T21:45:15.764Z,0.05
2019-01-28T21:47:53.208Z,-0.10
2019-01-28T21:50:22.401Z,-0.09
2019-01-28T21:52:50.663Z,-0.01
2019-01-28T21:55:18.922Z,-0.05
2019-01-28T21:57:47.194Z,-0.18
2019-01-28T22:00:15.802Z,-0.22
2019-01-28T22:02:44.066Z,-0.24
2019-01-28T22:05:12.403Z,-0.37
2019-01-28T22:07:40.686Z,-0.29
2019-01-28T22:10:13.833Z,-0.26
2019-01-28T22:12:42.103Z,-0.32
2019-01-28T22:15:17.650Z,-0.50
2019-01-28T22:17:46.073Z,-0.62
2019-01-28T22:20:17.087Z,-0.57
2019-01-28T22:22:45.498Z,-0.67
2019-01-28T22:25:16.083Z,-0.61
2019-01-28T22:27:45.551Z,-0.65
2019-01-28T22:30:21.811Z,-0.71
2019-01-28T22:32:50.144Z,-0.75
2019-01-28T22:35:18.563Z,-0.63
2019-01-28T22:37:46.903Z,-0.64
2019-01-28T22:40:16.694Z,-0.73
2019-01-28T22:42:44.967Z,-0.64
2019-01-28T22:45:15.927Z,-0.61
2019-01-28T22:47:44.378Z,-0.69
2019-01-28T22:50:15.031Z,-0.68
2019-01-28T22:52:43.325Z,-0.63
2019-01-28T22:55:14.422Z,-0.76
2019-01-28T22:57:42.680Z,-0.76
2019-01-28T23:00:21.521Z,-0.82
2019-01-28T23:02:49.789Z,-0.77
2019-01-28T23:05:18.052Z,-0.95
2019-01-28T23:07:46.314Z,-0.84
2019-01-28T23:10:14.639Z,-0.77
2019-01-28T23:12:42.897Z,-0.89
2019-01-28T23:15:11.180Z,-0.95
2019-01-28T23:17:39.439Z,-0.96
2019-01-28T23:20:09.118Z,-1.04
2019-01-28T23:22:37.375Z,-1.00
2019-01-28T23:25:06.591Z,-1.02
2019-01-28T23:27:34.849Z,-1.01
2019-01-28T23:30:03.113Z,-1.00
2019-01-28T23:32:31.376Z,-1.10
2019-01-28T23:34:59.648Z,-1.07
2019-01-28T23:37:27.915Z,-1.14
2019-01-28T23:39:56.177Z,-1.13
2019-01-28T23:42:24.450Z,-1.14
2019-01-28T23:44:52.724Z,-1.06
2019-01-28T23:47:20.993Z,-1.13
2019-01-28T23:49:49.274Z,-1.12
2019-01-28T23:52:24.730Z,-1.12
2019-01-28T23:54:47.535Z,-1.19
2019-01-28T23:57:15.791Z,-1.20
2019-01-28T23:59:44.058Z,-1.23
